Accueil
METAR-TAF:

METAR-TAF

Aéroports :

Aéroport de Gênes-Christophe Colomb

Gênes, Italie

latitude: 44-25N, longitude: 008-51E, altitude: 2 m

Observation

Le bulletin a été fait il y a 17 minutes, à 13:20 UTC
Vent 7 kt de nord, variant entre ouest/nord-ouest et nord-est
Température 30°C
Humidité 49%
Pression 1019 hPa
Visibilité 10 km ou plus
Quelques nuages à une hauteur de 4000 ft, Cumulus congestus.
Nuages épars à une hauteur de 8000 ft

METAR: LIMJ 221320Z 36007KT 300V050 9999 FEW040TCU SCT080 30/18 Q1019

Heure: 15:37 (13:37 UTC)

Prévision

Le bulletin a été fait il y a 2 heures et 37 minutes, à 11:00 UTC
Prévision valable du 22 à 12 UTC au 23 à 12 UTC
Vent 12 kt de nord
Visibilité 10 km ou plus
Nuages épars à une hauteur de 5000 ft
Probabilité 30% :
Temporairement
du 22 à 12 UTC au 22 à 15 UTC
orage, pluie

TAF: LIMJ 221100Z 2212/2312 01012KT 9999 SCT050 PROB30 TEMPO 2212/2215 TSRA

Observations et prévisions météorologiques de plus de 4000 aéroports (messages METAR et TAF).

Les stations disponibles sont représentées par des disques jaunes et rouges sur la carte.

Passer la souris dessus pour voir le nom de la station.

Cliquer dessus pour voir les observations et prévisions météorologiques.

Pour changer de carte: cliquez sur les boutons verts avec une croix noire pour zoomer, sur le bouton vert avec un tiret pour effectuer un zoom arrière, ou sur les flèches vertes pour les cartes adjacentes.


METAR-TAF: